sensor_id;sensor_type;location;lat;lon;timestamp;temperature;humidity
8475;DHT22;4274;52.012;8.448;2022-12-18T00:01:37;-6.60;99.90
8475;DHT22;4274;52.012;8.448;2022-12-18T00:04:05;-6.60;99.90
8475;DHT22;4274;52.012;8.448;2022-12-18T00:06:32;-6.60;99.90
8475;DHT22;4274;52.012;8.448;2022-12-18T00:08:59;-6.60;99.90
8475;DHT22;4274;52.012;8.448;2022-12-18T00:11:28;-6.50;99.90
8475;DHT22;4274;52.012;8.448;2022-12-18T00:13:55;-6.30;99.90
8475;DHT22;4274;52.012;8.448;2022-12-18T00:16:23;-6.20;99.90
8475;DHT22;4274;52.012;8.448;2022-12-18T00:18:51;-6.20;99.90
8475;DHT22;4274;52.012;8.448;2022-12-18T00:21:18;-6.10;99.90
8475;DHT22;4274;52.012;8.448;2022-12-18T00:23:46;-6.00;99.90
8475;DHT22;4274;52.012;8.448;2022-12-18T00:26:14;-5.80;99.90
8475;DHT22;4274;52.012;8.448;2022-12-18T00:28:43;-5.60;99.90
8475;DHT22;4274;52.012;8.448;2022-12-18T00:31:13;-5.60;99.90
8475;DHT22;4274;52.012;8.448;2022-12-18T00:33:39;-5.60;99.90
8475;DHT22;4274;52.012;8.448;2022-12-18T00:36:10;-5.60;99.90
8475;DHT22;4274;52.012;8.448;2022-12-18T00:38:37;-5.70;99.90
8475;DHT22;4274;52.012;8.448;2022-12-18T00:41:03;-6.00;99.90
8475;DHT22;4274;52.012;8.448;2022-12-18T00:43:29;-6.20;99.90
8475;DHT22;4274;52.012;8.448;2022-12-18T00:45:55;-6.30;99.90
8475;DHT22;4274;52.012;8.448;2022-12-18T00:48:20;-6.30;99.90
8475;DHT22;4274;52.012;8.448;2022-12-18T00:50:48;-6.50;99.90
8475;DHT22;4274;52.012;8.448;2022-12-18T00:53:14;-6.50;99.90
8475;DHT22;4274;52.012;8.448;2022-12-18T00:55:40;-6.50;99.90
8475;DHT22;4274;52.012;8.448;2022-12-18T00:58:07;-6.50;99.90
8475;DHT22;4274;52.012;8.448;2022-12-18T01:00:33;-6.50;99.90
8475;DHT22;4274;52.012;8.448;2022-12-18T01:02:59;-6.60;99.90
8475;DHT22;4274;52.012;8.448;2022-12-18T01:05:25;-6.40;99.90
8475;DHT22;4274;52.012;8.448;2022-12-18T01:07:50;-6.20;99.90
8475;DHT22;4274;52.012;8.448;2022-12-18T01:10:16;-6.10;99.90
8475;DHT22;4274;52.012;8.448;2022-12-18T01:12:41;-5.90;99.90
8475;DHT22;4274;52.012;8.448;2022-12-18T01:15:07;-5.80;99.90
8475;DHT22;4274;52.012;8.448;2022-12-18T01:17:34;-5.80;99.90
8475;DHT22;4274;52.012;8.448;2022-12-18T01:19:59;-5.70;99.90
8475;DHT22;4274;52.012;8.448;2022-12-18T01:22:25;-5.50;99.90
8475;DHT22;4274;52.012;8.448;2022-12-18T01:24:50;-5.50;99.90
8475;DHT22;4274;52.012;8.448;2022-12-18T01:27:16;-5.50;99.90
8475;DHT22;4274;52.012;8.448;2022-12-18T01:29:41;-5.40;99.90
8475;DHT22;4274;52.012;8.448;2022-12-18T01:32:08;-5.40;99.90
8475;DHT22;4274;52.012;8.448;2022-12-18T01:34:35;-5.50;99.90
8475;DHT22;4274;52.012;8.448;2022-12-18T01:37:03;-5.50;99.90
8475;DHT22;4274;52.012;8.448;2022-12-18T01:39:29;-5.60;99.90
8475;DHT22;4274;52.012;8.448;2022-12-18T01:41:54;-5.70;99.90
8475;DHT22;4274;52.012;8.448;2022-12-18T01:47:20;-5.80;99.90
8475;DHT22;4274;52.012;8.448;2022-12-18T01:49:46;-5.80;99.90
8475;DHT22;4274;52.012;8.448;2022-12-18T01:52:13;-6.00;99.90
8475;DHT22;4274;52.012;8.448;2022-12-18T01:54:39;-5.90;99.90
8475;DHT22;4274;52.012;8.448;2022-12-18T01:57:04;-5.80;99.90
8475;DHT22;4274;52.012;8.448;2022-12-18T01:59:31;-5.70;99.90
8475;DHT22;4274;52.012;8.448;2022-12-18T02:01:58;-5.60;99.90
8475;DHT22;4274;52.012;8.448;2022-12-18T02:04:27;-5.50;99.90
8475;DHT22;4274;52.012;8.448;2022-12-18T02:10:01;-5.30;99.90
8475;DHT22;4274;52.012;8.448;2022-12-18T02:12:41;-5.40;99.90
8475;DHT22;4274;52.012;8.448;2022-12-18T02:17:56;-5.50;99.90
8475;DHT22;4274;52.012;8.448;2022-12-18T02:29:08;-5.50;99.90
8475;DHT22;4274;52.012;8.448;2022-12-18T02:31:40;-5.60;99.90
8475;DHT22;4274;52.012;8.448;2022-12-18T02:34:09;-5.60;99.90
8475;DHT22;4274;52.012;8.448;2022-12-18T02:36:38;-5.50;99.90
8475;DHT22;4274;52.012;8.448;2022-12-18T02:39:07;-5.40;99.90
8475;DHT22;4274;52.012;8.448;2022-12-18T02:41:34;-5.20;99.90
8475;DHT22;4274;52.012;8.448;2022-12-18T02:44:07;-5.20;99.90
8475;DHT22;4274;52.012;8.448;2022-12-18T02:46:37;-5.10;99.90
8475;DHT22;4274;52.012;8.448;2022-12-18T02:49:31;-5.00;99.90
8475;DHT22;4274;52.012;8.448;2022-12-18T03:00:22;-4.90;99.90
8475;DHT22;4274;52.012;8.448;2022-12-18T03:03:31;-4.90;99.90
8475;DHT22;4274;52.012;8.448;2022-12-18T03:08:22;-4.90;99.90
8475;DHT22;4274;52.012;8.448;2022-12-18T03:10:56;-5.00;99.90
8475;DHT22;4274;52.012;8.448;2022-12-18T03:13:27;-4.90;99.90
8475;DHT22;4274;52.012;8.448;2022-12-18T03:15:56;-4.80;99.90
8475;DHT22;4274;52.012;8.448;2022-12-18T03:18:30;-4.70;99.90
8475;DHT22;4274;52.012;8.448;2022-12-18T03:20:59;-4.70;99.90
8475;DHT22;4274;52.012;8.448;2022-12-18T03:23:30;-4.60;99.90
8475;DHT22;4274;52.012;8.448;2022-12-18T03:26:00;-4.60;99.90
8475;DHT22;4274;52.012;8.448;2022-12-18T03:28:28;-4.60;99.90
8475;DHT22;4274;52.012;8.448;2022-12-18T03:30:56;-4.50;99.90
8475;DHT22;4274;52.012;8.448;2022-12-18T03:33:39;-4.50;99.90
8475;DHT22;4274;52.012;8.448;2022-12-18T03:36:06;-4.50;99.90
8475;DHT22;4274;52.012;8.448;2022-12-18T03:38:32;-4.60;99.90
8475;DHT22;4274;52.012;8.448;2022-12-18T03:43:48;-4.60;99.90
8475;DHT22;4274;52.012;8.448;2022-12-18T03:49:11;-4.50;99.90
8475;DHT22;4274;52.012;8.448;2022-12-18T03:51:48;-4.50;99.90
8475;DHT22;4274;52.012;8.448;2022-12-18T03:54:16;-4.60;99.90
8475;DHT22;4274;52.012;8.448;2022-12-18T03:56:45;-4.60;99.90
8475;DHT22;4274;52.012;8.448;2022-12-18T03:59:14;-4.60;99.90
8475;DHT22;4274;52.012;8.448;2022-12-18T04:01:47;-4.60;99.90
8475;DHT22;4274;52.012;8.448;2022-12-18T04:04:15;-4.50;99.90
8475;DHT22;4274;52.012;8.448;2022-12-18T04:06:42;-4.50;99.90
8475;DHT22;4274;52.012;8.448;2022-12-18T04:09:09;-4.40;99.90
8475;DHT22;4274;52.012;8.448;2022-12-18T04:11:35;-4.40;99.90
8475;DHT22;4274;52.012;8.448;2022-12-18T04:14:00;-4.50;99.90
8475;DHT22;4274;52.012;8.448;2022-12-18T04:16:26;-4.50;99.90
8475;DHT22;4274;52.012;8.448;2022-12-18T04:18:52;-4.50;99.90
8475;DHT22;4274;52.012;8.448;2022-12-18T04:21:18;-4.50;99.90
8475;DHT22;4274;52.012;8.448;2022-12-18T04:23:44;-4.50;99.90
8475;DHT22;4274;52.012;8.448;2022-12-18T04:26:10;-4.50;99.90
8475;DHT22;4274;52.012;8.448;2022-12-18T04:28:35;-4.50;99.90
8475;DHT22;4274;52.012;8.448;2022-12-18T04:31:01;-4.50;99.90
8475;DHT22;4274;52.012;8.448;2022-12-18T04:33:26;-4.50;99.90
8475;DHT22;4274;52.012;8.448;2022-12-18T04:35:52;-4.50;99.90
8475;DHT22;4274;52.012;8.448;2022-12-18T04:38:18;-4.50;99.90
8475;DHT22;4274;52.012;8.448;2022-12-18T04:40:43;-4.50;99.90
8475;DHT22;4274;52.012;8.448;2022-12-18T04:43:09;-4.50;99.90
8475;DHT22;4274;52.012;8.448;2022-12-18T04:45:35;-4.50;99.90
8475;DHT22;4274;52.012;8.448;2022-12-18T04:48:02;-4.50;99.90
8475;DHT22;4274;52.012;8.448;2022-12-18T04:50:28;-4.50;99.90
8475;DHT22;4274;52.012;8.448;2022-12-18T04:52:54;-4.50;99.90
8475;DHT22;4274;52.012;8.448;2022-12-18T04:55:20;-4.50;99.90
8475;DHT22;4274;52.012;8.448;2022-12-18T04:57:45;-4.50;99.90
8475;DHT22;4274;52.012;8.448;2022-12-18T05:00:11;-4.40;99.90
8475;DHT22;4274;52.012;8.448;2022-12-18T05:02:38;-4.40;99.90
8475;DHT22;4274;52.012;8.448;2022-12-18T05:05:04;-4.40;99.90
8475;DHT22;4274;52.012;8.448;2022-12-18T05:07:29;-4.40;99.90
8475;DHT22;4274;52.012;8.448;2022-12-18T05:09:55;-4.40;99.90
8475;DHT22;4274;52.012;8.448;2022-12-18T05:12:21;-4.30;99.90
8475;DHT22;4274;52.012;8.448;2022-12-18T05:14:46;-4.30;99.90
8475;DHT22;4274;52.012;8.448;2022-12-18T05:17:12;-4.30;99.90
8475;DHT22;4274;52.012;8.448;2022-12-18T05:19:37;-4.30;99.90
8475;DHT22;4274;52.012;8.448;2022-12-18T05:22:03;-4.30;99.90
8475;DHT22;4274;52.012;8.448;2022-12-18T05:24:28;-4.20;99.90
8475;DHT22;4274;52.012;8.448;2022-12-18T05:26:54;-4.30;99.90
8475;DHT22;4274;52.012;8.448;2022-12-18T05:29:20;-4.20;99.90
8475;DHT22;4274;52.012;8.448;2022-12-18T05:31:45;-4.20;99.90
8475;DHT22;4274;52.012;8.448;2022-12-18T05:34:11;-4.30;99.90
8475;DHT22;4274;52.012;8.448;2022-12-18T05:36:36;-4.30;99.90
8475;DHT22;4274;52.012;8.448;2022-12-18T05:39:02;-4.30;99.90
8475;DHT22;4274;52.012;8.448;2022-12-18T05:41:27;-4.30;99.90
8475;DHT22;4274;52.012;8.448;2022-12-18T05:43:54;-4.30;99.90
8475;DHT22;4274;52.012;8.448;2022-12-18T05:46:19;-4.30;99.90
8475;DHT22;4274;52.012;8.448;2022-12-18T05:48:45;-4.30;99.90
8475;DHT22;4274;52.012;8.448;2022-12-18T05:51:14;-4.30;99.90
8475;DHT22;4274;52.012;8.448;2022-12-18T05:53:41;-4.30;99.90
8475;DHT22;4274;52.012;8.448;2022-12-18T05:56:13;-4.30;99.90
8475;DHT22;4274;52.012;8.448;2022-12-18T05:58:40;-4.30;99.90
8475;DHT22;4274;52.012;8.448;2022-12-18T06:01:17;-4.30;99.90
8475;DHT22;4274;52.012;8.448;2022-12-18T06:03:44;-4.20;99.90
8475;DHT22;4274;52.012;8.448;2022-12-18T06:06:18;-4.30;99.90
8475;DHT22;4274;52.012;8.448;2022-12-18T06:08:44;-4.30;99.90
8475;DHT22;4274;52.012;8.448;2022-12-18T06:11:10;-4.30;99.90
8475;DHT22;4274;52.012;8.448;2022-12-18T06:13:36;-4.30;99.90
8475;DHT22;4274;52.012;8.448;2022-12-18T06:16:06;-4.20;99.90
8475;DHT22;4274;52.012;8.448;2022-12-18T06:18:32;-4.10;99.90
8475;DHT22;4274;52.012;8.448;2022-12-18T06:20:59;-4.10;99.90
8475;DHT22;4274;52.012;8.448;2022-12-18T06:23:25;-4.00;99.90
8475;DHT22;4274;52.012;8.448;2022-12-18T06:25:51;-4.00;99.90
8475;DHT22;4274;52.012;8.448;2022-12-18T06:28:16;-4.00;99.90
8475;DHT22;4274;52.012;8.448;2022-12-18T06:30:48;-3.90;99.90
8475;DHT22;4274;52.012;8.448;2022-12-18T06:33:15;-3.90;99.90
8475;DHT22;4274;52.012;8.448;2022-12-18T06:35:41;-3.90;99.90
8475;DHT22;4274;52.012;8.448;2022-12-18T06:38:07;-4.00;99.90
8475;DHT22;4274;52.012;8.448;2022-12-18T06:40:33;-3.90;99.90
8475;DHT22;4274;52.012;8.448;2022-12-18T06:42:58;-3.90;99.90
8475;DHT22;4274;52.012;8.448;2022-12-18T06:45:24;-3.90;99.90
8475;DHT22;4274;52.012;8.448;2022-12-18T06:47:50;-3.80;99.90
8475;DHT22;4274;52.012;8.448;2022-12-18T06:50:15;-3.80;99.90
8475;DHT22;4274;52.012;8.448;2022-12-18T06:52:41;-3.70;99.90
8475;DHT22;4274;52.012;8.448;2022-12-18T06:55:10;-3.70;99.90
8475;DHT22;4274;52.012;8.448;2022-12-18T06:57:36;-3.70;99.90
8475;DHT22;4274;52.012;8.448;2022-12-18T07:00:03;-3.70;99.90
8475;DHT22;4274;52.012;8.448;2022-12-18T07:02:29;-3.70;99.90
8475;DHT22;4274;52.012;8.448;2022-12-18T07:04:55;-3.60;99.90
8475;DHT22;4274;52.012;8.448;2022-12-18T07:07:20;-3.60;99.90
8475;DHT22;4274;52.012;8.448;2022-12-18T07:09:46;-3.60;99.90
8475;DHT22;4274;52.012;8.448;2022-12-18T07:12:11;-3.50;99.90
8475;DHT22;4274;52.012;8.448;2022-12-18T07:14:37;-3.50;99.90
8475;DHT22;4274;52.012;8.448;2022-12-18T07:17:02;-3.50;99.90
8475;DHT22;4274;52.012;8.448;2022-12-18T07:19:29;-3.40;99.90
8475;DHT22;4274;52.012;8.448;2022-12-18T07:21:54;-3.40;99.90
8475;DHT22;4274;52.012;8.448;2022-12-18T07:24:20;-3.30;99.90
8475;DHT22;4274;52.012;8.448;2022-12-18T07:26:46;-3.30;99.90
8475;DHT22;4274;52.012;8.448;2022-12-18T07:29:12;-3.30;99.90
8475;DHT22;4274;52.012;8.448;2022-12-18T07:31:38;-3.20;99.90
8475;DHT22;4274;52.012;8.448;2022-12-18T07:34:04;-3.30;99.90
8475;DHT22;4274;52.012;8.448;2022-12-18T07:36:29;-3.20;99.90
8475;DHT22;4274;52.012;8.448;2022-12-18T07:38:55;-3.10;99.90
8475;DHT22;4274;52.012;8.448;2022-12-18T07:41:21;-3.10;99.90
8475;DHT22;4274;52.012;8.448;2022-12-18T07:43:47;-3.00;99.90
8475;DHT22;4274;52.012;8.448;2022-12-18T07:46:13;-3.00;99.90
8475;DHT22;4274;52.012;8.448;2022-12-18T07:48:40;-2.90;99.90
8475;DHT22;4274;52.012;8.448;2022-12-18T07:51:07;-2.90;99.90
8475;DHT22;4274;52.012;8.448;2022-12-18T07:53:33;-2.90;99.90
8475;DHT22;4274;52.012;8.448;2022-12-18T07:56:01;-2.80;99.90
8475;DHT22;4274;52.012;8.448;2022-12-18T07:58:28;-2.90;99.90
8475;DHT22;4274;52.012;8.448;2022-12-18T08:00:53;-2.80;99.90
8475;DHT22;4274;52.012;8.448;2022-12-18T08:03:19;-2.70;99.90
8475;DHT22;4274;52.012;8.448;2022-12-18T08:05:45;-2.60;99.90
8475;DHT22;4274;52.012;8.448;2022-12-18T08:08:10;-2.50;99.90
8475;DHT22;4274;52.012;8.448;2022-12-18T08:10:37;-2.50;99.90
8475;DHT22;4274;52.012;8.448;2022-12-18T08:13:03;-2.40;99.90
8475;DHT22;4274;52.012;8.448;2022-12-18T08:15:28;-2.40;99.90
8475;DHT22;4274;52.012;8.448;2022-12-18T08:17:56;-2.40;99.90
8475;DHT22;4274;52.012;8.448;2022-12-18T08:20:22;-2.30;99.90
8475;DHT22;4274;52.012;8.448;2022-12-18T08:22:48;-2.30;99.90
8475;DHT22;4274;52.012;8.448;2022-12-18T08:25:13;-2.20;99.90
8475;DHT22;4274;52.012;8.448;2022-12-18T08:27:39;-2.10;99.90
8475;DHT22;4274;52.012;8.448;2022-12-18T08:30:05;-2.00;99.90
8475;DHT22;4274;52.012;8.448;2022-12-18T08:32:31;-1.90;99.90
8475;DHT22;4274;52.012;8.448;2022-12-18T08:34:58;-1.70;99.90
8475;DHT22;4274;52.012;8.448;2022-12-18T08:37:23;-1.20;99.90
8475;DHT22;4274;52.012;8.448;2022-12-18T08:39:49;-0.70;99.90
8475;DHT22;4274;52.012;8.448;2022-12-18T08:42:15;-0.30;99.90
8475;DHT22;4274;52.012;8.448;2022-12-18T08:44:59;-0.20;99.90
8475;DHT22;4274;52.012;8.448;2022-12-18T08:47:24;-0.30;99.90
8475;DHT22;4274;52.012;8.448;2022-12-18T08:49:51;-0.20;99.90
8475;DHT22;4274;52.012;8.448;2022-12-18T08:52:16;0.30;99.90
8475;DHT22;4274;52.012;8.448;2022-12-18T08:54:42;0.90;99.90
8475;DHT22;4274;52.012;8.448;2022-12-18T08:57:08;1.30;99.90
8475;DHT22;4274;52.012;8.448;2022-12-18T08:59:33;1.90;99.90
8475;DHT22;4274;52.012;8.448;2022-12-18T09:01:59;2.30;99.90
8475;DHT22;4274;52.012;8.448;2022-12-18T09:04:25;2.20;99.90
8475;DHT22;4274;52.012;8.448;2022-12-18T09:06:50;1.80;99.90
8475;DHT22;4274;52.012;8.448;2022-12-18T09:09:16;1.40;99.90
8475;DHT22;4274;52.012;8.448;2022-12-18T09:11:41;1.10;99.90
8475;DHT22;4274;52.012;8.448;2022-12-18T09:14:08;1.00;99.90
8475;DHT22;4274;52.012;8.448;2022-12-18T09:16:34;0.60;99.90
8475;DHT22;4274;52.012;8.448;2022-12-18T09:19:01;0.20;99.90
8475;DHT22;4274;52.012;8.448;2022-12-18T09:21:29;0.00;99.90
8475;DHT22;4274;52.012;8.448;2022-12-18T09:23:55;-0.20;99.90
8475;DHT22;4274;52.012;8.448;2022-12-18T09:26:22;-0.30;99.90
8475;DHT22;4274;52.012;8.448;2022-12-18T09:28:49;-0.40;99.90
8475;DHT22;4274;52.012;8.448;2022-12-18T09:31:15;-0.40;99.90
8475;DHT22;4274;52.012;8.448;2022-12-18T09:33:41;-0.50;99.90
8475;DHT22;4274;52.012;8.448;2022-12-18T09:36:09;-0.50;99.90
8475;DHT22;4274;52.012;8.448;2022-12-18T09:38:35;-0.50;99.90
8475;DHT22;4274;52.012;8.448;2022-12-18T09:44:11;-0.70;99.90
8475;DHT22;4274;52.012;8.448;2022-12-18T09:46:45;-0.80;99.90
8475;DHT22;4274;52.012;8.448;2022-12-18T09:49:16;-0.90;99.90
8475;DHT22;4274;52.012;8.448;2022-12-18T09:51:52;-0.90;99.90
8475;DHT22;4274;52.012;8.448;2022-12-18T09:54:38;-0.80;99.90
8475;DHT22;4274;52.012;8.448;2022-12-18T09:57:05;-0.60;99.90
8475;DHT22;4274;52.012;8.448;2022-12-18T09:59:38;-0.40;99.90
8475;DHT22;4274;52.012;8.448;2022-12-18T10:02:25;-0.20;99.90
8475;DHT22;4274;52.012;8.448;2022-12-18T10:05:05;0.00;99.90
8475;DHT22;4274;52.012;8.448;2022-12-18T10:10:53;0.30;99.90
8475;DHT22;4274;52.012;8.448;2022-12-18T10:13:31;0.30;99.90
8475;DHT22;4274;52.012;8.448;2022-12-18T10:16:14;0.30;99.90
8475;DHT22;4274;52.012;8.448;2022-12-18T10:24:24;0.60;99.90
8475;DHT22;4274;52.012;8.448;2022-12-18T10:26:52;0.80;99.90
8475;DHT22;4274;52.012;8.448;2022-12-18T10:29:18;1.10;99.90
8475;DHT22;4274;52.012;8.448;2022-12-18T10:31:44;1.30;99.90
8475;DHT22;4274;52.012;8.448;2022-12-18T10:34:11;1.40;99.90
8475;DHT22;4274;52.012;8.448;2022-12-18T10:36:37;1.60;99.90
8475;DHT22;4274;52.012;8.448;2022-12-18T10:39:25;1.60;99.90
8475;DHT22;4274;52.012;8.448;2022-12-18T10:41:51;1.60;99.90
8475;DHT22;4274;52.012;8.448;2022-12-18T10:46:45;2.20;99.90
8475;DHT22;4274;52.012;8.448;2022-12-18T10:49:32;2.60;99.90
8475;DHT22;4274;52.012;8.448;2022-12-18T10:54:52;3.40;99.90
8475;DHT22;4274;52.012;8.448;2022-12-18T10:57:37;3.50;99.90
8475;DHT22;4274;52.012;8.448;2022-12-18T11:00:26;3.40;99.90
8475;DHT22;4274;52.012;8.448;2022-12-18T11:02:53;3.10;99.90
8475;DHT22;4274;52.012;8.448;2022-12-18T11:05:29;2.70;99.90
8475;DHT22;4274;52.012;8.448;2022-12-18T11:07:56;2.40;99.90
8475;DHT22;4274;52.012;8.448;2022-12-18T11:10:35;2.20;99.90
8475;DHT22;4274;52.012;8.448;2022-12-18T11:13:16;2.10;99.90
8475;DHT22;4274;52.012;8.448;2022-12-18T11:15:43;2.00;99.90
8475;DHT22;4274;52.012;8.448;2022-12-18T11:18:27;2.00;99.90
8475;DHT22;4274;52.012;8.448;2022-12-18T11:21:08;1.80;99.90
8475;DHT22;4274;52.012;8.448;2022-12-18T11:23:35;1.60;99.90
8475;DHT22;4274;52.012;8.448;2022-12-18T11:26:03;1.50;99.90
8475;DHT22;4274;52.012;8.448;2022-12-18T11:29:08;1.40;99.90
8475;DHT22;4274;52.012;8.448;2022-12-18T11:31:34;1.40;99.90
8475;DHT22;4274;52.012;8.448;2022-12-18T11:34:13;1.40;99.90
8475;DHT22;4274;52.012;8.448;2022-12-18T11:36:43;1.40;99.90
8475;DHT22;4274;52.012;8.448;2022-12-18T11:39:20;1.50;99.90
8475;DHT22;4274;52.012;8.448;2022-12-18T11:41:54;1.70;99.90
8475;DHT22;4274;52.012;8.448;2022-12-18T11:45:20;1.60;99.90
8475;DHT22;4274;52.012;8.448;2022-12-18T11:50:50;1.50;99.90
8475;DHT22;4274;52.012;8.448;2022-12-18T11:53:17;1.40;99.90
8475;DHT22;4274;52.012;8.448;2022-12-18T11:55:58;1.30;99.90
8475;DHT22;4274;52.012;8.448;2022-12-18T11:58:50;1.30;99.90
8475;DHT22;4274;52.012;8.448;2022-12-18T12:07:17;1.20;99.90
8475;DHT22;4274;52.012;8.448;2022-12-18T12:15:47;1.00;99.90
8475;DHT22;4274;52.012;8.448;2022-12-18T12:39:46;0.90;99.90
8475;DHT22;4274;52.012;8.448;2022-12-18T12:42:50;0.90;99.90
8475;DHT22;4274;52.012;8.448;2022-12-18T12:45:58;0.90;99.90
8475;DHT22;4274;52.012;8.448;2022-12-18T12:51:01;0.90;99.90
8475;DHT22;4274;52.012;8.448;2022-12-18T12:53:36;0.90;99.90
8475;DHT22;4274;52.012;8.448;2022-12-18T12:56:03;0.90;99.90
8475;DHT22;4274;52.012;8.448;2022-12-18T13:01:28;0.90;99.90
8475;DHT22;4274;52.012;8.448;2022-12-18T13:04:10;0.80;99.90
8475;DHT22;4274;52.012;8.448;2022-12-18T13:09:06;0.80;99.90
8475;DHT22;4274;52.012;8.448;2022-12-18T13:11:41;0.80;99.90
8475;DHT22;4274;52.012;8.448;2022-12-18T13:14:37;0.80;99.90
8475;DHT22;4274;52.012;8.448;2022-12-18T13:19:40;0.80;99.90
8475;DHT22;4274;52.012;8.448;2022-12-18T13:22:23;0.80;99.90
8475;DHT22;4274;52.012;8.448;2022-12-18T13:24:50;0.80;99.90
8475;DHT22;4274;52.012;8.448;2022-12-18T13:41:00;0.80;99.90
8475;DHT22;4274;52.012;8.448;2022-12-18T13:43:41;0.80;99.90
8475;DHT22;4274;52.012;8.448;2022-12-18T13:46:29;0.90;99.90
8475;DHT22;4274;52.012;8.448;2022-12-18T13:49:13;0.90;99.90
8475;DHT22;4274;52.012;8.448;2022-12-18T13:51:46;0.90;99.90
8475;DHT22;4274;52.012;8.448;2022-12-18T13:54:19;0.90;99.90
8475;DHT22;4274;52.012;8.448;2022-12-18T13:56:47;0.90;99.90
8475;DHT22;4274;52.012;8.448;2022-12-18T14:01:52;0.80;99.80
8475;DHT22;4274;52.012;8.448;2022-12-18T14:04:26;0.80;99.90
8475;DHT22;4274;52.012;8.448;2022-12-18T14:06:56;0.80;99.90
8475;DHT22;4274;52.012;8.448;2022-12-18T14:09:26;0.70;99.90
8475;DHT22;4274;52.012;8.448;2022-12-18T14:11:53;0.70;99.90
8475;DHT22;4274;52.012;8.448;2022-12-18T14:14:45;0.70;99.90
8475;DHT22;4274;52.012;8.448;2022-12-18T14:17:12;0.70;99.90
8475;DHT22;4274;52.012;8.448;2022-12-18T14:19:49;0.70;99.90
8475;DHT22;4274;52.012;8.448;2022-12-18T14:22:24;0.70;99.90
8475;DHT22;4274;52.012;8.448;2022-12-18T14:25:19;0.60;99.90
8475;DHT22;4274;52.012;8.448;2022-12-18T14:28:02;0.60;99.90
8475;DHT22;4274;52.012;8.448;2022-12-18T14:30:41;0.60;99.90
8475;DHT22;4274;52.012;8.448;2022-12-18T14:33:19;0.60;99.90
8475;DHT22;4274;52.012;8.448;2022-12-18T14:35:58;0.60;99.90
8475;DHT22;4274;52.012;8.448;2022-12-18T14:38:27;0.60;99.90
8475;DHT22;4274;52.012;8.448;2022-12-18T14:43:22;0.60;99.90
8475;DHT22;4274;52.012;8.448;2022-12-18T14:45:48;0.60;99.90
8475;DHT22;4274;52.012;8.448;2022-12-18T14:50:58;0.50;99.90
8475;DHT22;4274;52.012;8.448;2022-12-18T14:53:37;0.50;99.90
8475;DHT22;4274;52.012;8.448;2022-12-18T14:56:14;0.50;99.90
8475;DHT22;4274;52.012;8.448;2022-12-18T14:59:11;0.50;99.90
8475;DHT22;4274;52.012;8.448;2022-12-18T15:01:34;0.50;99.90
8475;DHT22;4274;52.012;8.448;2022-12-18T15:04:02;0.40;99.90
8475;DHT22;4274;52.012;8.448;2022-12-18T15:06:34;0.40;99.90
8475;DHT22;4274;52.012;8.448;2022-12-18T15:09:05;0.40;99.90
8475;DHT22;4274;52.012;8.448;2022-12-18T15:11:46;0.40;99.90
8475;DHT22;4274;52.012;8.448;2022-12-18T15:14:41;0.40;99.90
8475;DHT22;4274;52.012;8.448;2022-12-18T15:17:17;0.30;99.90
8475;DHT22;4274;52.012;8.448;2022-12-18T15:19:45;0.30;99.90
8475;DHT22;4274;52.012;8.448;2022-12-18T15:22:33;0.30;99.90
8475;DHT22;4274;52.012;8.448;2022-12-18T15:25:00;0.20;99.90
8475;DHT22;4274;52.012;8.448;2022-12-18T15:27:36;0.40;99.90
8475;DHT22;4274;52.012;8.448;2022-12-18T15:32:36;0.40;99.90
8475;DHT22;4274;52.012;8.448;2022-12-18T15:37:38;0.30;99.90
8475;DHT22;4274;52.012;8.448;2022-12-18T15:40:04;0.20;99.90
8475;DHT22;4274;52.012;8.448;2022-12-18T15:42:30;0.20;99.90
8475;DHT22;4274;52.012;8.448;2022-12-18T15:45:14;0.10;99.90
8475;DHT22;4274;52.012;8.448;2022-12-18T15:47:40;0.10;99.90
8475;DHT22;4274;52.012;8.448;2022-12-18T15:50:09;0.10;99.90
8475;DHT22;4274;52.012;8.448;2022-12-18T15:52:40;0.00;99.90
8475;DHT22;4274;52.012;8.448;2022-12-18T15:55:13;0.00;99.90
8475;DHT22;4274;52.012;8.448;2022-12-18T15:57:58;0.00;99.90
8475;DHT22;4274;52.012;8.448;2022-12-18T16:00:23;0.00;99.90
8475;DHT22;4274;52.012;8.448;2022-12-18T16:02:49;-0.10;99.90
8475;DHT22;4274;52.012;8.448;2022-12-18T16:05:16;-0.10;99.90
8475;DHT22;4274;52.012;8.448;2022-12-18T16:07:43;-0.10;99.90
8475;DHT22;4274;52.012;8.448;2022-12-18T16:10:09;-0.10;99.90
8475;DHT22;4274;52.012;8.448;2022-12-18T16:12:35;-0.10;99.90
8475;DHT22;4274;52.012;8.448;2022-12-18T16:15:02;-0.10;99.90
8475;DHT22;4274;52.012;8.448;2022-12-18T16:17:28;-0.20;99.90
8475;DHT22;4274;52.012;8.448;2022-12-18T16:19:53;-0.20;99.90
8475;DHT22;4274;52.012;8.448;2022-12-18T16:22:27;-0.20;99.90
8475;DHT22;4274;52.012;8.448;2022-12-18T16:24:54;-0.10;99.90
8475;DHT22;4274;52.012;8.448;2022-12-18T16:27:23;-0.20;99.90
8475;DHT22;4274;52.012;8.448;2022-12-18T16:29:49;-0.20;99.90
8475;DHT22;4274;52.012;8.448;2022-12-18T16:32:18;-0.20;99.90
8475;DHT22;4274;52.012;8.448;2022-12-18T16:34:44;-0.10;99.90
8475;DHT22;4274;52.012;8.448;2022-12-18T16:37:12;-0.10;99.90
8475;DHT22;4274;52.012;8.448;2022-12-18T16:39:38;-0.10;99.90
8475;DHT22;4274;52.012;8.448;2022-12-18T16:42:08;-0.20;99.90
8475;DHT22;4274;52.012;8.448;2022-12-18T16:44:34;-0.20;99.90
8475;DHT22;4274;52.012;8.448;2022-12-18T16:47:00;-0.10;99.90
8475;DHT22;4274;52.012;8.448;2022-12-18T16:49:27;-0.20;99.90
8475;DHT22;4274;52.012;8.448;2022-12-18T16:51:53;-0.20;99.90
8475;DHT22;4274;52.012;8.448;2022-12-18T16:54:19;-0.20;99.90
8475;DHT22;4274;52.012;8.448;2022-12-18T16:56:44;-0.20;99.90
8475;DHT22;4274;52.012;8.448;2022-12-18T16:59:12;-0.20;99.90
8475;DHT22;4274;52.012;8.448;2022-12-18T17:01:38;-0.10;99.90
8475;DHT22;4274;52.012;8.448;2022-12-18T17:04:05;-0.10;99.90
8475;DHT22;4274;52.012;8.448;2022-12-18T17:06:32;-0.10;99.90
8475;DHT22;4274;52.012;8.448;2022-12-18T17:09:00;-0.10;99.90
8475;DHT22;4274;52.012;8.448;2022-12-18T17:11:27;-0.10;99.90
8475;DHT22;4274;52.012;8.448;2022-12-18T17:13:53;-0.10;99.90
8475;DHT22;4274;52.012;8.448;2022-12-18T17:16:19;-0.10;99.90
8475;DHT22;4274;52.012;8.448;2022-12-18T17:18:45;-0.10;99.90
8475;DHT22;4274;52.012;8.448;2022-12-18T17:21:11;-0.10;99.90
8475;DHT22;4274;52.012;8.448;2022-12-18T17:23:40;0.00;99.90
8475;DHT22;4274;52.012;8.448;2022-12-18T17:26:06;-0.10;99.90
8475;DHT22;4274;52.012;8.448;2022-12-18T17:28:33;-0.10;99.90
8475;DHT22;4274;52.012;8.448;2022-12-18T17:30:59;0.00;99.90
8475;DHT22;4274;52.012;8.448;2022-12-18T17:33:25;0.00;99.90
8475;DHT22;4274;52.012;8.448;2022-12-18T17:35:51;0.00;99.90
8475;DHT22;4274;52.012;8.448;2022-12-18T17:38:16;0.00;99.90
8475;DHT22;4274;52.012;8.448;2022-12-18T17:40:43;0.00;99.90
8475;DHT22;4274;52.012;8.448;2022-12-18T17:43:10;0.00;99.90
8475;DHT22;4274;52.012;8.448;2022-12-18T17:45:39;0.10;99.90
8475;DHT22;4274;52.012;8.448;2022-12-18T17:48:05;0.10;99.90
8475;DHT22;4274;52.012;8.448;2022-12-18T17:50:32;0.10;99.90
8475;DHT22;4274;52.012;8.448;2022-12-18T17:52:58;0.00;99.90
8475;DHT22;4274;52.012;8.448;2022-12-18T17:55:24;0.00;99.90
8475;DHT22;4274;52.012;8.448;2022-12-18T17:57:50;0.00;99.90
8475;DHT22;4274;52.012;8.448;2022-12-18T18:00:16;0.00;99.90
8475;DHT22;4274;52.012;8.448;2022-12-18T18:02:43;0.00;99.90
8475;DHT22;4274;52.012;8.448;2022-12-18T18:05:09;-0.10;99.90
8475;DHT22;4274;52.012;8.448;2022-12-18T18:07:36;-0.10;99.90
8475;DHT22;4274;52.012;8.448;2022-12-18T18:10:01;-0.10;99.90
8475;DHT22;4274;52.012;8.448;2022-12-18T18:12:27;-0.20;99.90
8475;DHT22;4274;52.012;8.448;2022-12-18T18:15:11;-0.20;99.90
8475;DHT22;4274;52.012;8.448;2022-12-18T18:17:37;-0.20;99.90
8475;DHT22;4274;52.012;8.448;2022-12-18T18:20:03;-0.30;99.90
8475;DHT22;4274;52.012;8.448;2022-12-18T18:22:29;-0.30;99.90
8475;DHT22;4274;52.012;8.448;2022-12-18T18:24:54;-0.30;99.90
8475;DHT22;4274;52.012;8.448;2022-12-18T18:27:20;-0.30;99.90